createdAt,value
2017-12-13T00:00:45.930Z,5.40
2017-12-13T00:03:13.497Z,5.30
2017-12-13T00:05:41.060Z,5.20
2017-12-13T00:08:09.433Z,5.10
2017-12-13T00:10:37.008Z,5.00
2017-12-13T00:13:05.379Z,4.90
2017-12-13T00:15:32.940Z,4.90
2017-12-13T00:18:01.329Z,4.80
2017-12-13T00:20:28.927Z,4.80
2017-12-13T00:22:56.548Z,4.80
2017-12-13T00:25:25.077Z,4.80
2017-12-13T00:27:52.697Z,4.70
2017-12-13T00:30:21.080Z,4.70
2017-12-13T00:32:48.662Z,4.70
2017-12-13T00:35:16.325Z,4.70
2017-12-13T00:37:43.904Z,4.70
2017-12-13T00:40:11.611Z,4.70
2017-12-13T00:42:39.554Z,4.60
2017-12-13T00:45:07.107Z,4.60
2017-12-13T00:47:34.738Z,4.60
2017-12-13T00:50:02.392Z,4.60
2017-12-13T00:52:29.990Z,4.50
2017-12-13T00:54:57.552Z,4.50
2017-12-13T00:57:25.129Z,4.40
2017-12-13T00:59:52.788Z,4.40
2017-12-13T01:02:20.348Z,4.30
2017-12-13T01:04:50.041Z,4.30
2017-12-13T01:07:17.632Z,4.20
2017-12-13T01:09:45.223Z,4.20
2017-12-13T01:12:12.879Z,4.20
2017-12-13T01:14:40.467Z,4.10
2017-12-13T01:17:08.086Z,4.10
2017-12-13T01:19:35.690Z,4.10
2017-12-13T01:22:03.340Z,4.20
2017-12-13T01:24:30.907Z,4.20
2017-12-13T01:26:58.456Z,4.30
2017-12-13T01:29:26.136Z,4.40
2017-12-13T01:31:53.712Z,4.50
2017-12-13T01:34:22.117Z,4.60
2017-12-13T01:36:49.717Z,4.60
2017-12-13T01:39:17.333Z,4.70
2017-12-13T01:41:45.653Z,4.70
2017-12-13T01:44:13.283Z,4.70
2017-12-13T01:46:41.609Z,4.80
2017-12-13T01:49:09.145Z,4.70
2017-12-13T01:51:36.729Z,4.80
2017-12-13T01:54:04.496Z,4.80
2017-12-13T01:56:32.106Z,4.80
2017-12-13T01:58:59.683Z,4.80
2017-12-13T02:01:27.326Z,4.90
2017-12-13T02:03:54.912Z,4.90
2017-12-13T02:06:22.650Z,4.90
2017-12-13T02:08:51.193Z,4.90
2017-12-13T02:11:18.894Z,4.90
2017-12-13T02:13:46.485Z,5.00
2017-12-13T02:16:14.054Z,4.90
2017-12-13T02:18:41.690Z,4.90
2017-12-13T02:21:09.273Z,4.80
2017-12-13T02:23:36.874Z,4.70
2017-12-13T02:26:05.222Z,4.60
2017-12-13T02:28:32.841Z,4.60
2017-12-13T02:31:00.476Z,4.60
2017-12-13T02:33:28.845Z,4.50
2017-12-13T02:35:56.437Z,4.50
2017-12-13T02:38:23.990Z,4.40
2017-12-13T02:41:01.192Z,4.30
2017-12-13T02:43:28.823Z,4.30
2017-12-13T02:45:57.253Z,4.30
2017-12-13T02:48:24.936Z,4.20
2017-12-13T02:50:52.548Z,4.20
2017-12-13T02:53:21.105Z,4.20
2017-12-13T02:55:49.439Z,4.20
2017-12-13T02:58:17.047Z,4.20
2017-12-13T03:00:45.381Z,4.20
2017-12-13T03:03:12.995Z,4.10
2017-12-13T03:05:40.585Z,4.20
2017-12-13T03:08:08.257Z,4.20
2017-12-13T03:10:35.826Z,4.20
2017-12-13T03:13:03.400Z,4.20
2017-12-13T03:15:31.017Z,4.30
2017-12-13T03:17:58.580Z,4.30
2017-12-13T03:20:26.172Z,4.30
2017-12-13T03:22:53.807Z,4.40
2017-12-13T03:25:21.417Z,4.40
2017-12-13T03:27:48.976Z,4.40
2017-12-13T03:30:16.546Z,4.40
2017-12-13T03:32:44.156Z,4.40
2017-12-13T03:35:11.725Z,4.30
2017-12-13T03:37:39.368Z,4.30
2017-12-13T03:40:06.933Z,4.20
2017-12-13T03:42:34.542Z,4.20
2017-12-13T03:45:02.968Z,4.10
2017-12-13T03:47:30.576Z,4.10
2017-12-13T03:49:58.213Z,4.10
2017-12-13T03:52:26.706Z,4.10
2017-12-13T03:54:54.298Z,4.10
2017-12-13T03:57:22.679Z,4.00
2017-12-13T03:59:50.282Z,4.00
2017-12-13T04:02:17.913Z,3.90
2017-12-13T04:04:45.480Z,3.90
2017-12-13T04:07:13.135Z,3.90
2017-12-13T04:09:41.577Z,3.90
2017-12-13T04:12:09.172Z,3.90
2017-12-13T04:14:36.824Z,3.90
2017-12-13T04:17:04.405Z,3.80
2017-12-13T04:19:32.362Z,3.80
2017-12-13T04:21:59.941Z,3.80
2017-12-13T04:24:28.540Z,3.80
2017-12-13T04:26:56.173Z,3.80
2017-12-13T04:29:23.781Z,3.70
2017-12-13T04:31:52.100Z,3.70
2017-12-13T04:34:19.678Z,3.70
2017-12-13T04:36:47.291Z,3.70
2017-12-13T04:39:14.849Z,3.60
2017-12-13T04:41:42.482Z,3.60
2017-12-13T04:44:10.730Z,3.60
2017-12-13T04:46:38.349Z,3.60
2017-12-13T04:49:05.963Z,3.60
2017-12-13T04:51:33.581Z,3.50
2017-12-13T04:54:02.516Z,3.50
2017-12-13T04:56:30.074Z,3.50
2017-12-13T04:58:57.718Z,3.50
2017-12-13T05:01:25.335Z,3.40
2017-12-13T05:03:52.984Z,3.40
2017-12-13T05:06:20.709Z,3.40
2017-12-13T05:08:48.370Z,3.40
2017-12-13T05:11:15.970Z,3.40
2017-12-13T05:13:43.533Z,3.40
2017-12-13T05:16:11.160Z,3.40
2017-12-13T05:18:38.754Z,3.40
2017-12-13T05:21:06.385Z,3.40
2017-12-13T05:23:34.044Z,3.40
2017-12-13T05:26:01.657Z,3.30
2017-12-13T05:28:30.073Z,3.30
2017-12-13T05:30:57.636Z,3.30
2017-12-13T05:33:25.255Z,3.20
2017-12-13T05:35:53.604Z,3.20
2017-12-13T05:38:21.225Z,3.20
2017-12-13T05:40:48.821Z,3.20
2017-12-13T05:43:16.455Z,3.20
2017-12-13T05:45:44.033Z,3.20
2017-12-13T05:48:11.681Z,3.20
2017-12-13T05:50:39.260Z,3.10
2017-12-13T05:53:07.433Z,3.10
2017-12-13T05:55:35.089Z,3.10
2017-12-13T05:58:02.834Z,3.10
2017-12-13T06:00:30.454Z,3.10
2017-12-13T06:02:58.057Z,3.10
2017-12-13T06:05:25.677Z,3.00
2017-12-13T06:07:54.046Z,3.00
2017-12-13T06:10:21.609Z,3.00
2017-12-13T06:12:49.227Z,3.00
2017-12-13T06:15:16.797Z,3.00
2017-12-13T06:17:44.413Z,3.00
2017-12-13T06:20:12.000Z,3.00
2017-12-13T06:22:39.607Z,2.90
2017-12-13T06:25:07.214Z,2.90
2017-12-13T06:27:34.868Z,2.90
2017-12-13T06:30:02.503Z,2.90
2017-12-13T06:32:30.112Z,2.80
2017-12-13T06:34:57.701Z,2.80
2017-12-13T06:37:25.318Z,2.80
2017-12-13T06:39:52.930Z,2.70
2017-12-13T06:42:20.518Z,2.70
2017-12-13T06:44:48.675Z,2.70
2017-12-13T06:47:16.482Z,2.60
2017-12-13T06:49:44.118Z,2.60
2017-12-13T06:52:11.707Z,2.70
2017-12-13T06:54:39.789Z,2.70
2017-12-13T06:57:07.440Z,2.70
2017-12-13T06:59:35.014Z,2.70
2017-12-13T07:02:02.729Z,2.70
2017-12-13T07:04:30.319Z,2.70
2017-12-13T07:06:57.939Z,2.70
2017-12-13T07:09:26.286Z,2.70
2017-12-13T07:11:53.870Z,2.70
2017-12-13T07:14:22.257Z,2.70
2017-12-13T07:16:49.863Z,2.60
2017-12-13T07:19:17.533Z,2.70
2017-12-13T07:21:45.101Z,2.70
2017-12-13T07:24:12.721Z,2.70
2017-12-13T07:26:40.301Z,2.60
2017-12-13T07:29:07.933Z,2.70
2017-12-13T07:31:36.284Z,2.80
2017-12-13T07:34:03.856Z,2.70
2017-12-13T07:36:32.243Z,2.80
2017-12-13T07:39:00.654Z,2.90
2017-12-13T07:41:28.293Z,2.90
2017-12-13T07:43:55.884Z,3.00
2017-12-13T07:46:23.502Z,3.00
2017-12-13T07:48:51.075Z,3.00
2017-12-13T07:51:19.026Z,3.10
2017-12-13T07:53:46.610Z,3.20
2017-12-13T07:56:15.003Z,3.20
2017-12-13T07:58:42.645Z,3.30
2017-12-13T08:01:10.251Z,3.30
2017-12-13T08:03:37.849Z,3.40
2017-12-13T08:06:06.189Z,3.50
2017-12-13T08:08:34.554Z,3.50
2017-12-13T08:11:02.142Z,3.50
2017-12-13T08:13:29.744Z,3.60
2017-12-13T08:15:57.349Z,3.60
2017-12-13T08:18:24.937Z,3.70
2017-12-13T08:20:53.341Z,3.80
2017-12-13T08:23:20.935Z,3.80
2017-12-13T08:25:48.586Z,3.90
2017-12-13T08:28:16.238Z,3.90
2017-12-13T08:30:43.815Z,4.00
2017-12-13T08:33:11.436Z,4.00
2017-12-13T08:35:39.002Z,4.00
2017-12-13T08:38:06.598Z,4.00
2017-12-13T08:40:34.160Z,4.10
2017-12-13T08:43:01.844Z,4.10
2017-12-13T08:45:29.366Z,4.10
2017-12-13T08:47:57.012Z,4.20
2017-12-13T08:50:24.614Z,4.30
2017-12-13T08:52:52.263Z,4.30
2017-12-13T08:55:19.898Z,4.30
2017-12-13T08:57:47.465Z,4.20
2017-12-13T09:00:15.077Z,4.10
2017-12-13T09:02:43.613Z,4.00
2017-12-13T09:05:11.261Z,3.90
2017-12-13T09:07:38.821Z,3.90
2017-12-13T09:10:06.417Z,3.80
2017-12-13T09:12:34.106Z,3.80
2017-12-13T09:15:02.472Z,3.80
2017-12-13T09:17:30.598Z,3.80
2017-12-13T09:19:58.175Z,3.80
2017-12-13T09:22:26.122Z,3.80
2017-12-13T09:24:53.692Z,3.80
2017-12-13T09:27:21.310Z,3.80
2017-12-13T09:29:49.673Z,3.80
2017-12-13T09:32:17.245Z,3.80
2017-12-13T09:34:45.618Z,3.80
2017-12-13T09:37:14.236Z,3.80
2017-12-13T09:39:42.212Z,3.80
2017-12-13T09:42:09.801Z,3.80
2017-12-13T09:44:37.389Z,3.90
2017-12-13T09:47:04.946Z,3.90
2017-12-13T09:49:32.629Z,3.90
2017-12-13T09:52:00.205Z,4.00
2017-12-13T09:54:27.780Z,4.20
2017-12-13T09:56:55.424Z,4.30
2017-12-13T09:59:23.048Z,4.20
2017-12-13T10:01:50.730Z,4.20
2017-12-13T10:04:18.438Z,4.30
2017-12-13T10:06:46.573Z,4.30
2017-12-13T10:09:14.153Z,4.40
2017-12-13T10:11:41.812Z,4.50
2017-12-13T10:14:09.409Z,4.60
2017-12-13T10:16:37.617Z,4.70
2017-12-13T10:19:06.070Z,4.80
2017-12-13T10:21:33.645Z,4.70
2017-12-13T10:24:01.275Z,4.80
2017-12-13T10:26:28.884Z,4.80
2017-12-13T10:28:56.854Z,4.90
2017-12-13T10:31:24.410Z,4.90
2017-12-13T10:33:52.760Z,5.00
2017-12-13T10:36:20.398Z,4.90
2017-12-13T10:38:48.093Z,5.00
2017-12-13T10:41:15.685Z,5.00
2017-12-13T10:43:43.259Z,5.10
2017-12-13T10:46:10.888Z,5.10
2017-12-13T10:48:38.478Z,5.10
2017-12-13T10:51:06.058Z,5.10
2017-12-13T10:53:33.935Z,5.10
2017-12-13T10:56:01.529Z,5.00
2017-12-13T10:58:29.150Z,5.10
2017-12-13T11:00:56.710Z,5.10
2017-12-13T11:03:24.601Z,5.10
2017-12-13T11:05:52.199Z,5.10
2017-12-13T11:08:19.949Z,5.20
2017-12-13T11:10:48.331Z,5.20
2017-12-13T11:13:15.970Z,5.20
2017-12-13T11:15:43.581Z,5.20
2017-12-13T11:18:11.184Z,5.20
2017-12-13T11:20:38.924Z,5.30
2017-12-13T11:23:06.590Z,5.20
2017-12-13T11:25:34.564Z,5.20
2017-12-13T11:28:02.258Z,5.20
2017-12-13T11:30:30.661Z,5.20
2017-12-13T11:32:58.278Z,5.20
2017-12-13T11:35:25.876Z,5.10
2017-12-13T11:37:53.548Z,5.10
2017-12-13T11:40:21.433Z,5.10
2017-12-13T11:42:49.441Z,5.10
2017-12-13T11:45:17.040Z,5.10
2017-12-13T11:47:44.640Z,5.00
2017-12-13T11:50:12.274Z,5.00
2017-12-13T11:52:39.851Z,5.00
2017-12-13T11:55:07.426Z,5.00
2017-12-13T11:57:35.015Z,5.00
2017-12-13T12:00:03.902Z,5.00
2017-12-13T12:02:31.777Z,5.00
2017-12-13T12:05:00.131Z,4.90
2017-12-13T12:07:27.760Z,5.00
2017-12-13T12:09:55.330Z,5.00
2017-12-13T12:12:22.929Z,5.00
2017-12-13T12:14:50.531Z,5.00
2017-12-13T12:17:18.142Z,5.00
2017-12-13T12:19:45.925Z,5.00
2017-12-13T12:22:13.880Z,5.00
2017-12-13T12:24:41.496Z,5.10
2017-12-13T12:27:09.065Z,5.10
2017-12-13T12:29:37.848Z,5.10
2017-12-13T12:32:06.385Z,5.20
2017-12-13T12:34:34.770Z,5.20
2017-12-13T12:37:02.345Z,5.20
2017-12-13T12:39:30.218Z,5.20
2017-12-13T12:41:57.824Z,5.20
2017-12-13T12:44:25.406Z,5.30
2017-12-13T12:46:53.027Z,5.30
2017-12-13T12:49:20.623Z,5.30
2017-12-13T12:51:49.256Z,5.30
2017-12-13T12:54:16.868Z,5.30
2017-12-13T12:56:44.446Z,5.30
2017-12-13T12:59:12.058Z,5.30
2017-12-13T13:01:39.627Z,5.30
2017-12-13T13:04:07.267Z,5.40
2017-12-13T13:06:34.887Z,5.40
2017-12-13T13:09:02.893Z,5.40
2017-12-13T13:11:30.461Z,5.40
2017-12-13T13:13:58.039Z,5.40
2017-12-13T13:16:25.815Z,5.40
2017-12-13T13:18:53.400Z,5.40
2017-12-13T13:21:21.017Z,5.40
2017-12-13T13:23:48.588Z,5.40
2017-12-13T13:26:16.541Z,5.40
2017-12-13T13:28:44.203Z,5.40
2017-12-13T13:31:11.821Z,5.40
2017-12-13T13:33:39.564Z,5.40
2017-12-13T13:36:07.909Z,5.40
2017-12-13T13:38:35.512Z,5.30
2017-12-13T13:41:03.849Z,5.40
2017-12-13T13:43:31.866Z,5.30
2017-12-13T13:46:00.723Z,5.40
2017-12-13T13:48:28.430Z,5.30
2017-12-13T13:50:56.717Z,5.40
2017-12-13T13:53:24.314Z,5.30
2017-12-13T13:55:52.355Z,5.30
2017-12-13T13:58:20.700Z,5.30
2017-12-13T14:00:48.824Z,5.30
2017-12-13T14:03:16.426Z,5.30
2017-12-13T14:05:44.801Z,5.30
2017-12-13T14:08:12.459Z,5.30
2017-12-13T14:10:40.099Z,5.30
2017-12-13T14:13:08.050Z,5.30
2017-12-13T14:15:35.742Z,5.20
2017-12-13T14:18:04.157Z,5.20
2017-12-13T14:20:31.770Z,5.10
2017-12-13T14:22:59.354Z,5.10
2017-12-13T14:25:27.879Z,5.10
2017-12-13T14:27:55.442Z,5.00
2017-12-13T14:30:23.050Z,5.00
2017-12-13T14:32:50.626Z,5.00
2017-12-13T14:35:18.630Z,5.00
2017-12-13T14:37:47.107Z,5.00
2017-12-13T14:40:15.953Z,4.90
2017-12-13T14:42:43.820Z,4.90
2017-12-13T14:45:11.412Z,4.90
2017-12-13T14:47:39.998Z,4.90
2017-12-13T14:50:08.228Z,4.80
2017-12-13T14:52:36.157Z,4.80
2017-12-13T14:55:03.745Z,4.80
2017-12-13T14:57:31.416Z,4.80
2017-12-13T14:59:59.026Z,4.80
2017-12-13T15:02:26.605Z,4.70
2017-12-13T15:04:54.970Z,4.70
2017-12-13T15:07:22.534Z,4.70
2017-12-13T15:09:50.621Z,4.60
2017-12-13T15:12:18.210Z,4.60
2017-12-13T15:14:45.860Z,4.60
2017-12-13T15:17:13.458Z,4.50
2017-12-13T15:19:41.042Z,4.50
2017-12-13T15:22:08.774Z,4.50
2017-12-13T15:24:36.381Z,4.50
2017-12-13T15:27:04.791Z,4.50
2017-12-13T15:29:32.395Z,4.50
2017-12-13T15:32:00.277Z,4.50
2017-12-13T15:34:29.180Z,4.50
2017-12-13T15:36:58.811Z,4.50
2017-12-13T15:39:27.213Z,4.50
2017-12-13T15:41:54.933Z,4.50
2017-12-13T15:44:26.348Z,4.50
2017-12-13T15:46:54.034Z,4.50
2017-12-13T15:49:21.698Z,4.40
2017-12-13T15:51:49.346Z,4.40
2017-12-13T15:54:16.970Z,4.40
2017-12-13T15:56:45.426Z,4.40
2017-12-13T15:59:13.127Z,4.40
2017-12-13T16:01:41.154Z,4.40
2017-12-13T16:04:08.737Z,4.40
2017-12-13T16:06:36.342Z,4.40
2017-12-13T16:09:03.953Z,4.40
2017-12-13T16:11:33.540Z,4.40
2017-12-13T16:14:01.184Z,4.40
2017-12-13T16:16:28.754Z,4.50
2017-12-13T16:18:56.390Z,4.50
2017-12-13T16:21:24.609Z,4.50
2017-12-13T16:23:52.258Z,4.60
2017-12-13T16:26:20.387Z,4.60
2017-12-13T16:28:47.972Z,4.60
2017-12-13T16:31:15.659Z,4.60
2017-12-13T16:33:43.314Z,4.60
2017-12-13T16:36:11.653Z,4.60
2017-12-13T16:38:39.585Z,4.60
2017-12-13T16:41:08.013Z,4.60
2017-12-13T16:43:35.926Z,4.60
2017-12-13T16:46:04.710Z,4.60
2017-12-13T16:48:32.343Z,4.60
2017-12-13T16:50:59.987Z,4.60
2017-12-13T16:53:27.594Z,4.60
2017-12-13T16:55:55.979Z,4.60
2017-12-13T16:58:23.570Z,4.60
2017-12-13T17:00:52.466Z,4.60
2017-12-13T17:03:20.087Z,4.60
2017-12-13T17:05:48.456Z,4.70
2017-12-13T17:08:16.123Z,4.70
2017-12-13T17:10:43.705Z,4.70
2017-12-13T17:13:11.391Z,4.80
2017-12-13T17:15:39.017Z,4.80
2017-12-13T17:18:12.429Z,4.90
2017-12-13T17:20:40.065Z,4.90
2017-12-13T17:23:08.133Z,4.90
2017-12-13T17:25:35.738Z,4.90
2017-12-13T17:28:03.917Z,5.00
2017-12-13T17:30:31.549Z,5.00
2017-12-13T17:32:59.262Z,5.00
2017-12-13T17:35:26.896Z,5.10
2017-12-13T17:37:54.507Z,5.10
2017-12-13T17:40:22.293Z,5.10
2017-12-13T17:42:49.926Z,5.10
2017-12-13T17:45:18.014Z,5.10
2017-12-13T17:47:45.584Z,5.10
2017-12-13T17:50:14.088Z,5.20
2017-12-13T17:52:42.701Z,5.20
2017-12-13T17:55:10.330Z,5.20
2017-12-13T17:57:37.933Z,5.20
2017-12-13T18:00:05.510Z,5.20
2017-12-13T18:02:33.470Z,5.20
2017-12-13T18:05:01.054Z,5.20
2017-12-13T18:07:28.650Z,5.20
2017-12-13T18:09:56.283Z,5.20
2017-12-13T18:12:24.634Z,5.30
2017-12-13T18:14:52.284Z,5.20
2017-12-13T18:17:19.978Z,5.30
2017-12-13T18:19:47.973Z,5.30
2017-12-13T18:22:15.567Z,5.30
2017-12-13T18:24:43.886Z,5.30
2017-12-13T18:27:12.365Z,5.30
2017-12-13T18:29:40.763Z,5.30
2017-12-13T18:32:08.484Z,5.30
2017-12-13T18:34:36.131Z,5.30
2017-12-13T18:37:04.019Z,5.30
2017-12-13T18:39:31.594Z,5.30
2017-12-13T18:41:59.164Z,5.30
2017-12-13T18:44:27.545Z,5.30
2017-12-13T18:46:55.177Z,5.30
2017-12-13T18:49:23.052Z,5.30
2017-12-13T18:51:50.676Z,5.30
2017-12-13T18:54:18.542Z,5.30
2017-12-13T18:56:46.231Z,5.40
2017-12-13T18:59:13.814Z,5.30
2017-12-13T19:01:42.227Z,5.40
2017-12-13T19:04:09.825Z,5.40
2017-12-13T19:06:37.450Z,5.40
2017-12-13T19:09:05.071Z,5.40
2017-12-13T19:11:33.920Z,5.50
2017-12-13T19:14:01.525Z,5.40
2017-12-13T19:16:29.096Z,5.40
2017-12-13T19:18:57.494Z,5.50
2017-12-13T19:21:25.053Z,5.50
2017-12-13T19:23:53.067Z,5.50
2017-12-13T19:26:20.661Z,5.50
2017-12-13T19:28:48.279Z,5.50
2017-12-13T19:31:16.003Z,5.50
2017-12-13T19:33:43.845Z,5.50
2017-12-13T19:36:14.112Z,5.40
2017-12-13T19:38:43.389Z,5.30
2017-12-13T19:41:11.764Z,5.20
2017-12-13T19:43:39.388Z,5.10
2017-12-13T19:46:06.961Z,5.00
2017-12-13T19:48:34.611Z,5.00
2017-12-13T19:51:02.485Z,4.80
2017-12-13T19:53:30.720Z,4.80
2017-12-13T19:55:58.292Z,4.70
2017-12-13T19:58:25.931Z,4.60
2017-12-13T20:00:53.538Z,4.50
2017-12-13T20:03:21.465Z,4.40
2017-12-13T20:05:49.059Z,4.40
2017-12-13T20:08:16.766Z,4.40
2017-12-13T20:10:44.385Z,4.30
2017-12-13T20:13:11.983Z,4.40
2017-12-13T20:15:39.653Z,4.30
2017-12-13T20:18:07.228Z,4.30
2017-12-13T20:20:35.301Z,4.30
2017-12-13T20:23:02.918Z,4.30
2017-12-13T20:25:30.500Z,4.30
2017-12-13T20:27:58.109Z,4.30
2017-12-13T20:30:25.806Z,4.20
2017-12-13T20:32:54.605Z,4.20
2017-12-13T20:35:22.203Z,4.20
2017-12-13T20:37:49.769Z,4.20
2017-12-13T20:40:17.525Z,4.20
2017-12-13T20:42:45.137Z,4.20
2017-12-13T20:45:12.800Z,4.30
2017-12-13T20:47:40.438Z,4.30
2017-12-13T20:50:08.049Z,4.30
2017-12-13T20:52:36.385Z,4.30
2017-12-13T20:55:04.740Z,4.30
2017-12-13T20:57:32.358Z,4.30
2017-12-13T21:00:00.038Z,4.30
2017-12-13T21:02:27.646Z,4.30
2017-12-13T21:04:55.986Z,4.20
2017-12-13T21:07:23.595Z,4.20
2017-12-13T21:09:52.886Z,4.20
2017-12-13T21:12:21.241Z,4.20
2017-12-13T21:14:48.870Z,4.20
2017-12-13T21:17:16.464Z,4.20
2017-12-13T21:19:44.079Z,4.20
2017-12-13T21:22:11.730Z,4.10
2017-12-13T21:24:40.468Z,4.10
2017-12-13T21:27:08.111Z,4.10
2017-12-13T21:29:35.722Z,4.10
2017-12-13T21:32:03.357Z,4.10
2017-12-13T21:34:31.684Z,4.00
2017-12-13T21:36:59.351Z,4.00
2017-12-13T21:39:27.088Z,4.00
2017-12-13T21:41:55.713Z,4.00
2017-12-13T21:44:23.387Z,4.00
2017-12-13T21:46:51.180Z,4.00
2017-12-13T21:49:18.809Z,4.00
2017-12-13T21:51:46.561Z,4.10
2017-12-13T21:54:14.259Z,4.10
2017-12-13T21:56:41.841Z,4.10
2017-12-13T21:59:09.770Z,4.10
2017-12-13T22:01:37.347Z,4.20
2017-12-13T22:04:04.977Z,4.20
2017-12-13T22:06:32.582Z,4.20
2017-12-13T22:09:00.938Z,4.20
2017-12-13T22:11:28.599Z,4.20
2017-12-13T22:13:56.194Z,4.20
2017-12-13T22:16:25.136Z,4.30
2017-12-13T22:18:52.734Z,4.20
2017-12-13T22:21:20.347Z,4.30
2017-12-13T22:23:47.977Z,4.20
2017-12-13T22:26:16.334Z,4.30
2017-12-13T22:28:43.946Z,4.30
2017-12-13T22:31:11.529Z,4.30
2017-12-13T22:33:39.555Z,4.30
2017-12-13T22:36:07.137Z,4.40
2017-12-13T22:38:34.962Z,4.40
2017-12-13T22:41:04.161Z,4.40
2017-12-13T22:43:31.757Z,4.30
2017-12-13T22:45:59.374Z,4.30
2017-12-13T22:48:27.732Z,4.30
2017-12-13T22:50:56.916Z,4.20
2017-12-13T22:53:24.485Z,4.20
2017-12-13T22:55:52.109Z,4.20
2017-12-13T22:58:19.690Z,4.20
2017-12-13T23:00:51.060Z,4.20
2017-12-13T23:03:19.389Z,4.30
2017-12-13T23:05:47.382Z,4.20
2017-12-13T23:08:15.023Z,4.30
2017-12-13T23:10:42.788Z,4.40
2017-12-13T23:13:10.417Z,4.40
2017-12-13T23:15:38.756Z,4.30
2017-12-13T23:18:06.406Z,4.40
2017-12-13T23:20:33.984Z,4.40
2017-12-13T23:23:01.581Z,4.40
2017-12-13T23:25:29.141Z,4.40
2017-12-13T23:27:57.157Z,4.50
2017-12-13T23:30:24.737Z,4.50
2017-12-13T23:32:52.305Z,4.50
2017-12-13T23:35:19.927Z,4.50
2017-12-13T23:37:47.513Z,4.50
2017-12-13T23:40:15.186Z,4.50
2017-12-13T23:42:42.753Z,4.50
2017-12-13T23:45:11.041Z,4.50
2017-12-13T23:47:39.382Z,4.60
2017-12-13T23:50:07.002Z,4.50
2017-12-13T23:52:34.706Z,4.60
2017-12-13T23:55:02.273Z,4.60
2017-12-13T23:57:30.363Z,4.60
2017-12-13T23:59:58.795Z,4.70
